createdAt,value
2023-05-16T00:01:36.010Z,5.60
2023-05-16T00:04:04.783Z,5.88
2023-05-16T00:06:33.387Z,6.25
2023-05-16T00:09:01.817Z,5.97
2023-05-16T00:11:31.551Z,6.38
2023-05-16T00:14:01.527Z,6.32
2023-05-16T00:16:30.568Z,6.20
2023-05-16T00:19:01.272Z,6.07
2023-05-16T00:21:29.950Z,6.05
2023-05-16T00:23:58.304Z,6.07
2023-05-16T00:26:26.702Z,6.50
2023-05-16T00:28:56.384Z,6.95
2023-05-16T00:31:25.094Z,6.70
2023-05-16T00:33:53.439Z,6.45
2023-05-16T00:36:23.821Z,6.28
2023-05-16T00:38:52.325Z,6.30
2023-05-16T00:41:21.103Z,7.05
2023-05-16T00:43:49.386Z,6.50
2023-05-16T00:46:19.063Z,6.18
2023-05-16T00:48:47.418Z,6.40
2023-05-16T00:51:15.719Z,6.32
2023-05-16T00:53:44.498Z,6.80
2023-05-16T00:56:12.814Z,6.70
2023-05-16T00:58:41.213Z,6.63
2023-05-16T01:01:09.553Z,6.05
2023-05-16T01:03:39.929Z,6.75
2023-05-16T01:06:08.532Z,6.20
2023-05-16T01:08:36.802Z,6.75
2023-05-16T01:11:10.698Z,6.63
2023-05-16T01:13:42.955Z,5.88
2023-05-16T01:16:15.438Z,6.50
2023-05-16T01:18:49.924Z,6.28
2023-05-16T01:21:21.653Z,5.82
2023-05-16T01:23:53.509Z,7.60
2023-05-16T01:26:24.063Z,6.55
2023-05-16T01:28:52.937Z,6.88
2023-05-16T01:31:21.626Z,7.63
2023-05-16T01:33:50.645Z,6.80
2023-05-16T01:36:26.080Z,6.72
2023-05-16T01:39:05.020Z,7.30
2023-05-16T01:41:41.114Z,7.10
2023-05-16T01:44:12.939Z,7.80
2023-05-16T01:46:45.687Z,7.47
2023-05-16T01:49:17.828Z,7.18
2023-05-16T01:51:51.982Z,7.65
2023-05-16T01:54:20.733Z,7.80
2023-05-16T01:56:53.530Z,8.05
2023-05-16T01:59:22.941Z,7.43
2023-05-16T02:01:51.535Z,7.43
2023-05-16T02:04:20.397Z,7.57
2023-05-16T02:06:48.703Z,8.50
2023-05-16T02:09:16.968Z,7.57
2023-05-16T02:11:46.750Z,8.02
2023-05-16T02:14:16.695Z,7.38
2023-05-16T02:16:45.021Z,7.50
2023-05-16T02:19:13.698Z,8.90
2023-05-16T02:21:42.001Z,8.38
2023-05-16T02:24:10.300Z,8.20
2023-05-16T02:26:38.584Z,7.63
2023-05-16T02:29:07.254Z,8.05
2023-05-16T02:31:37.346Z,7.40
2023-05-16T02:34:05.767Z,8.00
2023-05-16T02:36:34.486Z,8.20
2023-05-16T02:39:04.000Z,8.23
2023-05-16T02:41:32.593Z,8.23
2023-05-16T02:44:00.909Z,8.02
2023-05-16T02:46:30.805Z,8.00
2023-05-16T02:49:01.601Z,8.00
2023-05-16T02:51:30.363Z,8.18
2023-05-16T02:53:59.858Z,7.63
2023-05-16T02:56:28.665Z,8.25
2023-05-16T02:58:57.269Z,7.72
2023-05-16T03:01:25.683Z,8.55
2023-05-16T03:03:54.188Z,8.70
2023-05-16T03:06:23.890Z,7.90
2023-05-16T03:08:52.181Z,9.20
2023-05-16T03:11:22.861Z,8.32
2023-05-16T03:13:51.344Z,8.75
2023-05-16T03:16:19.622Z,9.45
2023-05-16T03:18:47.976Z,8.75
2023-05-16T03:21:16.311Z,9.32
2023-05-16T03:23:46.270Z,9.65
2023-05-16T03:26:14.571Z,9.35
2023-05-16T03:28:42.889Z,9.48
2023-05-16T03:31:11.241Z,9.35
2023-05-16T03:33:39.600Z,8.80
2023-05-16T03:36:08.294Z,8.88
2023-05-16T03:38:36.766Z,9.18
2023-05-16T03:41:06.424Z,9.10
2023-05-16T03:43:34.939Z,8.52
2023-05-16T03:46:03.314Z,8.82
2023-05-16T03:48:31.657Z,9.32
2023-05-16T03:50:59.971Z,9.77
2023-05-16T03:53:28.237Z,9.35
2023-05-16T03:55:56.571Z,10.45
2023-05-16T03:58:26.314Z,11.35
2023-05-16T04:00:54.616Z,10.75
2023-05-16T04:03:28.539Z,9.60
2023-05-16T04:05:57.424Z,9.65
2023-05-16T04:08:25.790Z,9.70
2023-05-16T04:10:54.121Z,10.27
2023-05-16T04:13:22.788Z,9.88
2023-05-16T04:15:52.825Z,9.73
2023-05-16T04:18:21.187Z,10.00
2023-05-16T04:20:50.175Z,9.73
2023-05-16T04:23:18.461Z,9.13
2023-05-16T04:25:46.744Z,9.38
2023-05-16T04:28:15.106Z,10.07
2023-05-16T04:30:43.468Z,9.55
2023-05-16T04:33:13.209Z,10.32
2023-05-16T04:35:41.513Z,9.52
2023-05-16T04:38:09.800Z,9.75
2023-05-16T04:40:38.082Z,9.30
2023-05-16T04:43:06.742Z,11.10
2023-05-16T04:45:37.456Z,10.50
2023-05-16T04:48:06.432Z,10.43
2023-05-16T04:50:36.206Z,10.00
2023-05-16T04:53:04.522Z,9.95
2023-05-16T04:55:32.820Z,10.18
2023-05-16T04:58:01.116Z,9.13
2023-05-16T05:00:29.706Z,9.10
2023-05-16T05:02:58.300Z,9.50
2023-05-16T05:05:27.017Z,10.18
2023-05-16T05:07:56.910Z,9.15
2023-05-16T05:10:25.570Z,9.93
2023-05-16T05:12:54.013Z,10.43
2023-05-16T05:15:22.410Z,9.75
2023-05-16T05:17:50.794Z,10.02
2023-05-16T05:20:19.180Z,10.40
2023-05-16T05:22:47.499Z,10.65
2023-05-16T05:25:17.801Z,11.13
2023-05-16T05:27:46.131Z,10.32
2023-05-16T05:30:14.589Z,10.32
2023-05-16T05:32:42.889Z,10.90
2023-05-16T05:35:11.250Z,9.88
2023-05-16T05:37:39.606Z,10.07
2023-05-16T05:40:09.201Z,9.95
2023-05-16T05:42:38.863Z,10.13
2023-05-16T05:45:07.776Z,10.10
2023-05-16T05:47:36.191Z,10.50
2023-05-16T05:50:04.760Z,10.10
2023-05-16T05:52:33.096Z,10.10
2023-05-16T05:55:01.401Z,9.73
2023-05-16T05:57:29.702Z,9.35
2023-05-16T05:59:59.428Z,10.18
2023-05-16T06:02:27.814Z,10.05
2023-05-16T06:04:56.282Z,10.23
2023-05-16T06:07:24.630Z,10.32
2023-05-16T06:09:52.914Z,10.48
2023-05-16T06:12:21.233Z,10.77
2023-05-16T06:14:49.494Z,10.90
2023-05-16T06:17:19.662Z,10.80
2023-05-16T06:19:48.157Z,11.00
2023-05-16T06:22:16.464Z,10.43
2023-05-16T06:24:44.749Z,11.27
2023-05-16T06:27:13.075Z,10.60
2023-05-16T06:29:41.715Z,11.13
2023-05-16T06:32:13.102Z,11.40
2023-05-16T06:34:43.148Z,10.45
2023-05-16T06:37:11.677Z,11.23
2023-05-16T06:39:39.968Z,10.60
2023-05-16T06:42:08.304Z,10.82
2023-05-16T06:44:36.846Z,10.98
2023-05-16T06:47:05.464Z,10.68
2023-05-16T06:49:34.437Z,11.38
2023-05-16T06:52:04.138Z,11.18
2023-05-16T06:54:32.537Z,10.10
2023-05-16T06:57:00.869Z,11.07
2023-05-16T06:59:29.196Z,10.93
2023-05-16T07:01:57.692Z,10.10
2023-05-16T07:04:26.013Z,9.95
2023-05-16T07:06:54.538Z,10.05
2023-05-16T07:09:24.368Z,10.23
2023-05-16T07:11:52.700Z,10.43
2023-05-16T07:14:21.108Z,11.25
2023-05-16T07:16:49.499Z,10.70
2023-05-16T07:19:18.128Z,10.65
2023-05-16T07:21:46.500Z,10.27
2023-05-16T07:24:14.830Z,10.65
2023-05-16T07:26:44.568Z,10.40
2023-05-16T07:29:12.985Z,10.05
2023-05-16T07:31:41.441Z,10.07
2023-05-16T07:34:09.883Z,9.45
2023-05-16T07:36:38.236Z,9.25
2023-05-16T07:39:06.921Z,9.00
2023-05-16T07:41:35.295Z,9.68
2023-05-16T07:44:05.044Z,8.85
2023-05-16T07:46:33.773Z,8.82
2023-05-16T07:49:02.138Z,8.55
2023-05-16T07:51:30.623Z,8.45
2023-05-16T07:53:58.963Z,8.95
2023-05-16T07:56:27.300Z,7.72
2023-05-16T07:58:55.724Z,8.45
2023-05-16T08:01:25.563Z,8.65
2023-05-16T08:03:54.005Z,7.38
2023-05-16T08:06:22.330Z,7.82
2023-05-16T08:08:50.687Z,7.57
2023-05-16T08:11:19.046Z,7.78
2023-05-16T08:13:47.407Z,8.00
2023-05-16T08:16:15.949Z,7.65
2023-05-16T08:18:45.920Z,7.22
2023-05-16T08:21:16.659Z,6.90
2023-05-16T08:23:47.074Z,6.65
2023-05-16T08:26:15.641Z,5.75
2023-05-16T08:28:44.013Z,6.50
2023-05-16T08:31:12.391Z,6.35
2023-05-16T08:33:40.762Z,6.28
2023-05-16T08:36:11.296Z,5.30
2023-05-16T08:38:39.698Z,5.85
2023-05-16T08:41:08.038Z,6.13
2023-05-16T08:43:36.994Z,5.35
2023-05-16T08:46:05.510Z,5.25
2023-05-16T08:48:34.199Z,5.05
2023-05-16T08:51:02.753Z,5.40
2023-05-16T08:53:34.171Z,5.10
2023-05-16T08:56:03.096Z,5.45
2023-05-16T08:58:31.510Z,5.55
2023-05-16T09:01:00.039Z,5.35
2023-05-16T09:03:29.100Z,8.10
2023-05-16T09:05:57.889Z,7.38
2023-05-16T09:08:26.537Z,6.07
2023-05-16T09:10:56.619Z,5.15
2023-05-16T09:13:25.978Z,6.13
2023-05-16T09:16:09.356Z,5.80
2023-05-16T09:18:38.275Z,5.85
2023-05-16T09:21:07.647Z,6.20
2023-05-16T09:23:37.386Z,5.95
2023-05-16T09:26:08.609Z,5.45
2023-05-16T09:28:39.749Z,6.43
2023-05-16T09:31:21.789Z,5.13
2023-05-16T09:33:51.105Z,6.60
2023-05-16T09:36:19.824Z,6.75
2023-05-16T09:38:48.153Z,5.53
2023-05-16T09:41:17.933Z,5.07
2023-05-16T09:43:46.495Z,5.50
2023-05-16T09:46:15.538Z,5.15
2023-05-16T09:48:46.682Z,5.85
2023-05-16T09:51:17.897Z,5.20
2023-05-16T09:53:46.340Z,6.45
2023-05-16T09:56:15.826Z,5.43
2023-05-16T09:58:46.598Z,6.70
2023-05-16T10:01:15.273Z,6.90
2023-05-16T10:03:44.344Z,6.45
2023-05-16T10:06:13.979Z,6.80
2023-05-16T10:08:44.337Z,6.78
2023-05-16T10:11:12.994Z,5.50
2023-05-16T10:13:42.043Z,5.00
2023-05-16T10:16:13.403Z,5.20
2023-05-16T10:18:42.387Z,4.07
2023-05-16T10:21:12.393Z,4.20
2023-05-16T10:23:43.544Z,4.00
2023-05-16T10:26:14.585Z,3.83
2023-05-16T10:28:44.466Z,2.78
2023-05-16T10:31:15.311Z,2.85
2023-05-16T10:33:43.987Z,3.08
2023-05-16T10:36:13.014Z,2.50
2023-05-16T10:38:42.129Z,3.00
2023-05-16T10:41:10.528Z,3.10
2023-05-16T10:43:39.147Z,2.78
2023-05-16T10:46:09.764Z,2.15
2023-05-16T10:48:40.818Z,2.42
2023-05-16T10:51:24.069Z,2.00
2023-05-16T10:53:53.318Z,2.10
2023-05-16T10:56:25.361Z,2.03
2023-05-16T10:58:55.355Z,2.08
2023-05-16T11:01:24.926Z,1.85
2023-05-16T11:04:05.041Z,1.85
2023-05-16T11:06:34.262Z,2.33
2023-05-16T11:09:10.551Z,2.00
2023-05-16T11:11:44.373Z,2.25
2023-05-16T11:14:22.011Z,1.80
2023-05-16T11:16:51.893Z,1.50
2023-05-16T11:19:35.322Z,1.60
2023-05-16T11:22:07.538Z,1.33
2023-05-16T11:24:36.840Z,1.80
2023-05-16T11:27:05.905Z,1.50
2023-05-16T11:29:35.240Z,1.80
2023-05-16T11:32:06.236Z,1.30
2023-05-16T11:34:41.014Z,1.45
2023-05-16T11:37:12.642Z,1.42
2023-05-16T11:39:41.169Z,1.50
2023-05-16T11:42:10.953Z,1.75
2023-05-16T11:44:40.863Z,1.80
2023-05-16T11:47:14.115Z,1.27
2023-05-16T11:49:43.976Z,1.70
2023-05-16T11:52:12.355Z,1.88
2023-05-16T11:54:45.381Z,1.50
2023-05-16T11:57:13.954Z,1.98
2023-05-16T11:59:42.341Z,1.70
2023-05-16T12:02:11.985Z,1.17
2023-05-16T12:04:40.810Z,1.23
2023-05-16T12:07:10.827Z,1.40
2023-05-16T12:09:39.418Z,1.25
2023-05-16T12:12:09.231Z,1.38
2023-05-16T12:14:37.973Z,1.50
2023-05-16T12:17:20.470Z,1.30
2023-05-16T12:19:51.075Z,1.30
2023-05-16T12:25:45.281Z,1.65
2023-05-16T12:28:31.708Z,1.60
2023-05-16T12:31:09.394Z,1.60
2023-05-16T12:33:41.792Z,1.92
2023-05-16T12:36:34.769Z,1.83
2023-05-16T12:39:06.816Z,1.80
2023-05-16T12:41:52.419Z,1.80
2023-05-16T12:44:45.438Z,1.95
2023-05-16T12:47:37.296Z,1.77
2023-05-16T12:50:28.096Z,2.25
2023-05-16T12:53:03.024Z,2.08
2023-05-16T12:55:50.799Z,2.00
2023-05-16T13:01:22.992Z,2.10
2023-05-16T13:03:55.029Z,1.60
2023-05-16T13:06:57.463Z,1.67
2023-05-16T13:09:20.086Z,1.77
2023-05-16T13:12:01.446Z,1.42
2023-05-16T13:17:46.437Z,1.80
2023-05-16T13:20:33.191Z,1.50
2023-05-16T13:23:20.234Z,1.80
2023-05-16T13:25:49.739Z,1.50
2023-05-16T13:28:20.447Z,1.55
2023-05-16T13:33:46.260Z,1.70
2023-05-16T13:36:18.638Z,1.50
2023-05-16T13:38:57.955Z,1.70
2023-05-16T13:41:48.776Z,1.50
2023-05-16T13:44:27.246Z,1.80
2023-05-16T13:47:05.841Z,1.80
2023-05-16T13:49:37.914Z,1.70
2023-05-16T13:52:38.536Z,1.67
2023-05-16T13:55:10.493Z,1.90
2023-05-16T13:57:42.300Z,1.60
2023-05-16T14:03:06.832Z,1.80
2023-05-16T14:05:58.411Z,1.77
2023-05-16T14:08:41.343Z,1.60
2023-05-16T14:11:27.655Z,1.73
2023-05-16T14:14:03.549Z,1.33
2023-05-16T14:16:47.865Z,1.52
2023-05-16T14:19:36.813Z,1.60
2023-05-16T14:22:11.665Z,2.00
2023-05-16T14:24:52.814Z,1.65
2023-05-16T14:27:53.802Z,1.77
2023-05-16T14:30:34.525Z,2.00
2023-05-16T14:33:09.837Z,1.92
2023-05-16T14:35:41.685Z,1.77
2023-05-16T14:38:41.803Z,1.70
2023-05-16T14:41:25.836Z,2.22
2023-05-16T14:47:15.104Z,2.08
2023-05-16T14:58:26.551Z,2.10
2023-05-16T15:01:17.897Z,1.90
2023-05-16T15:04:21.698Z,2.05
2023-05-16T15:07:24.470Z,1.60
2023-05-16T15:09:56.025Z,1.40
2023-05-16T15:18:17.010Z,1.75
2023-05-16T15:20:59.804Z,1.40
2023-05-16T15:23:38.721Z,1.52
2023-05-16T15:29:27.180Z,1.23
2023-05-16T15:32:02.285Z,1.52
2023-05-16T15:34:42.288Z,1.60
2023-05-16T15:37:11.957Z,1.83
2023-05-16T15:43:41.735Z,1.42
2023-05-16T15:46:17.720Z,1.50
2023-05-16T15:48:54.887Z,1.52
2023-05-16T15:51:31.095Z,1.48
2023-05-16T15:54:11.128Z,1.70
2023-05-16T15:56:48.376Z,1.35
2023-05-16T15:59:20.276Z,1.20
2023-05-16T16:01:54.790Z,1.00
2023-05-16T16:04:40.320Z,1.10
2023-05-16T16:07:14.753Z,1.00
2023-05-16T16:09:51.125Z,1.35
2023-05-16T16:12:38.986Z,1.23
2023-05-16T16:15:10.243Z,1.00
2023-05-16T16:17:50.674Z,1.20
2023-05-16T16:20:28.893Z,0.95
2023-05-16T16:23:28.453Z,1.08
2023-05-16T16:26:12.097Z,1.00
2023-05-16T16:28:48.718Z,1.00
2023-05-16T16:31:33.924Z,1.00
2023-05-16T16:34:02.624Z,0.90
2023-05-16T16:36:31.665Z,1.23
2023-05-16T16:39:12.274Z,0.80
2023-05-16T16:42:11.940Z,0.90
2023-05-16T16:44:55.394Z,0.93
2023-05-16T16:47:34.787Z,1.60
2023-05-16T16:50:13.613Z,1.05
2023-05-16T16:55:30.181Z,0.85
2023-05-16T16:58:25.281Z,1.08
2023-05-16T17:04:38.635Z,1.20
2023-05-16T17:07:55.344Z,1.02
2023-05-16T17:10:27.034Z,1.20
2023-05-16T17:12:55.997Z,1.20
2023-05-16T17:15:28.811Z,1.30
2023-05-16T17:18:03.007Z,0.70
2023-05-16T17:20:46.920Z,1.50
2023-05-16T17:23:24.144Z,0.93
2023-05-16T17:25:52.915Z,1.00
2023-05-16T17:28:38.178Z,0.98
2023-05-16T17:31:30.198Z,1.13
2023-05-16T17:34:08.014Z,1.15
2023-05-16T17:43:32.890Z,1.08
2023-05-16T17:46:27.148Z,1.75
2023-05-16T17:55:23.233Z,1.52
2023-05-16T18:01:48.430Z,1.13
2023-05-16T18:04:45.246Z,1.15
2023-05-16T18:07:28.453Z,1.10
2023-05-16T18:10:22.711Z,0.97
2023-05-16T18:12:57.697Z,1.30
2023-05-16T18:15:34.524Z,1.23
2023-05-16T18:18:31.240Z,1.08
2023-05-16T18:21:17.195Z,1.35
2023-05-16T18:24:02.990Z,1.40
2023-05-16T18:26:52.822Z,1.45
2023-05-16T18:29:33.414Z,2.10
2023-05-16T18:32:22.150Z,1.60
2023-05-16T18:35:09.202Z,1.70
2023-05-16T18:37:58.202Z,1.45
2023-05-16T18:40:58.547Z,1.30
2023-05-16T18:43:37.589Z,1.08
2023-05-16T18:46:21.238Z,1.13
2023-05-16T18:49:15.357Z,1.67
2023-05-16T18:51:52.486Z,1.45
2023-05-16T18:54:42.282Z,1.27
2023-05-16T18:57:24.854Z,1.10
2023-05-16T19:00:08.799Z,1.48
2023-05-16T19:02:42.490Z,1.45
2023-05-16T19:05:15.454Z,1.40
2023-05-16T19:07:44.661Z,1.65
2023-05-16T19:10:13.606Z,1.60
2023-05-16T19:12:49.038Z,1.20
2023-05-16T19:15:18.985Z,1.30
2023-05-16T19:17:50.204Z,1.33
2023-05-16T19:20:24.973Z,1.63
2023-05-16T19:23:03.517Z,1.50
2023-05-16T19:25:34.136Z,1.40
2023-05-16T19:28:07.123Z,1.00
2023-05-16T19:30:37.501Z,1.25
2023-05-16T19:33:08.868Z,1.10
2023-05-16T19:35:40.511Z,1.15
2023-05-16T19:38:11.899Z,1.20
2023-05-16T19:40:47.131Z,1.02
2023-05-16T19:43:17.500Z,1.20
2023-05-16T19:45:48.782Z,0.90
2023-05-16T19:48:20.858Z,0.80
2023-05-16T19:51:29.563Z,0.85
2023-05-16T19:54:09.355Z,1.00
2023-05-16T19:56:41.893Z,1.35
2023-05-16T19:59:16.914Z,0.90
2023-05-16T20:01:45.943Z,1.23
2023-05-16T20:04:19.466Z,0.98
2023-05-16T20:06:49.589Z,0.82
2023-05-16T20:09:21.544Z,1.40
2023-05-16T20:11:53.741Z,1.27
2023-05-16T20:14:26.591Z,1.40
2023-05-16T20:17:05.668Z,1.20
2023-05-16T20:19:35.647Z,1.10
2023-05-16T20:22:05.827Z,1.33
2023-05-16T20:24:34.882Z,1.30
2023-05-16T20:27:05.045Z,3.35
2023-05-16T20:29:35.630Z,2.17
2023-05-16T20:32:04.980Z,1.63
2023-05-16T20:34:33.705Z,1.40
2023-05-16T20:37:02.136Z,1.67
2023-05-16T20:39:39.009Z,1.08
2023-05-16T20:42:11.152Z,1.15
2023-05-16T20:44:41.194Z,1.30
2023-05-16T20:47:17.033Z,1.27
2023-05-16T20:49:45.696Z,1.92
2023-05-16T20:52:14.185Z,0.90
2023-05-16T20:54:42.867Z,1.35
2023-05-16T20:57:11.271Z,1.10
2023-05-16T20:59:41.038Z,1.02
2023-05-16T21:02:10.295Z,0.90
2023-05-16T21:04:38.839Z,1.33
2023-05-16T21:07:08.549Z,0.85
2023-05-16T21:09:38.146Z,1.23
2023-05-16T21:12:07.028Z,1.00
2023-05-16T21:14:35.483Z,1.00
2023-05-16T21:17:05.481Z,0.82
2023-05-16T21:19:35.556Z,1.00
2023-05-16T21:22:04.322Z,1.10
2023-05-16T21:24:35.255Z,0.95
2023-05-16T21:27:04.234Z,0.98
2023-05-16T21:29:32.760Z,0.70
2023-05-16T21:32:01.281Z,1.10
2023-05-16T21:34:31.089Z,1.02
2023-05-16T21:36:59.979Z,0.90
2023-05-16T21:39:31.571Z,1.48
2023-05-16T21:42:00.740Z,1.13
2023-05-16T21:44:29.317Z,0.90
2023-05-16T21:46:57.810Z,1.10
2023-05-16T21:49:26.366Z,0.90
2023-05-16T21:51:56.280Z,1.00
2023-05-16T21:54:24.749Z,1.13
2023-05-16T21:56:57.959Z,1.00
2023-05-16T21:59:29.674Z,1.25
2023-05-16T22:01:58.373Z,1.10
2023-05-16T22:04:28.531Z,1.10
2023-05-16T22:07:03.322Z,1.20
2023-05-16T22:09:32.086Z,1.23
2023-05-16T22:12:11.031Z,1.10
2023-05-16T22:14:39.584Z,1.50
2023-05-16T22:17:10.202Z,1.45
2023-05-16T22:19:39.650Z,1.13
2023-05-16T22:22:21.096Z,1.25
2023-05-16T22:24:56.676Z,1.00
2023-05-16T22:27:25.411Z,1.40
2023-05-16T22:29:53.948Z,1.20
2023-05-16T22:32:26.063Z,1.35
2023-05-16T22:34:59.867Z,1.40
2023-05-16T22:37:30.579Z,1.40
2023-05-16T22:40:04.528Z,1.00
2023-05-16T22:42:33.115Z,1.35
2023-05-16T22:45:02.114Z,1.80
2023-05-16T22:47:31.447Z,1.30
2023-05-16T22:50:02.953Z,1.20
2023-05-16T22:52:33.763Z,1.20
2023-05-16T22:55:02.452Z,1.13
2023-05-16T22:57:31.033Z,1.20
2023-05-16T23:00:00.430Z,1.27
2023-05-16T23:02:28.983Z,1.40
2023-05-16T23:04:58.270Z,1.30
2023-05-16T23:07:31.033Z,0.95
2023-05-16T23:10:01.421Z,1.17
2023-05-16T23:12:31.070Z,1.20
2023-05-16T23:15:00.988Z,1.20
2023-05-16T23:17:32.200Z,1.30
2023-05-16T23:20:00.913Z,1.13
2023-05-16T23:22:29.600Z,1.00
2023-05-16T23:24:59.595Z,1.23
2023-05-16T23:27:29.416Z,1.50
2023-05-16T23:29:57.781Z,1.13
2023-05-16T23:32:26.268Z,1.10
2023-05-16T23:34:55.587Z,1.05
2023-05-16T23:37:25.474Z,1.15
2023-05-16T23:39:54.308Z,0.82
2023-05-16T23:42:31.957Z,1.45
2023-05-16T23:45:01.803Z,1.33
2023-05-16T23:47:30.358Z,1.25
2023-05-16T23:49:58.851Z,1.27
2023-05-16T23:52:27.214Z,1.20
2023-05-16T23:54:55.660Z,1.20
2023-05-16T23:57:24.118Z,1.48
2023-05-16T23:59:52.727Z,1.10
